createdAt,value
2018-03-21T00:00:32.321Z,0.30
2018-03-21T00:03:00.602Z,0.10
2018-03-21T00:05:28.849Z,0.00
2018-03-21T00:07:57.101Z,-0.10
2018-03-21T00:10:24.617Z,-0.10
2018-03-21T00:12:52.863Z,-0.30
2018-03-21T00:15:20.362Z,-0.30
2018-03-21T00:17:47.901Z,-0.40
2018-03-21T00:20:16.209Z,-0.40
2018-03-21T00:22:44.558Z,-0.50
2018-03-21T00:25:12.827Z,-0.50
2018-03-21T00:27:41.078Z,-0.60
2018-03-21T00:30:08.557Z,-0.60
2018-03-21T00:32:36.054Z,-0.70
2018-03-21T00:35:03.620Z,-0.70
2018-03-21T00:37:31.137Z,-0.80
2018-03-21T00:39:59.670Z,-0.90
2018-03-21T00:42:27.253Z,-0.90
2018-03-21T00:44:54.740Z,-0.90
2018-03-21T00:47:23.014Z,-1.00
2018-03-21T00:49:51.541Z,-1.10
2018-03-21T00:52:19.022Z,-1.10
2018-03-21T00:54:46.521Z,-1.10
2018-03-21T00:57:15.037Z,-1.10
2018-03-21T00:59:42.517Z,-1.10
2018-03-21T01:02:10.010Z,-1.20
2018-03-21T01:04:38.281Z,-1.30
2018-03-21T01:07:06.564Z,-1.30
2018-03-21T01:09:34.826Z,-1.40
2018-03-21T01:12:02.301Z,-1.40
2018-03-21T01:14:30.551Z,-1.50
2018-03-21T01:16:58.125Z,-1.50
2018-03-21T01:19:26.380Z,-1.50
2018-03-21T01:21:53.867Z,-1.60
2018-03-21T01:24:22.136Z,-1.60
2018-03-21T01:26:50.385Z,-1.60
2018-03-21T01:29:17.862Z,-1.70
2018-03-21T01:31:45.358Z,-1.60
2018-03-21T01:34:12.841Z,-1.70
2018-03-21T01:36:40.318Z,-1.70
2018-03-21T01:39:07.825Z,-1.70
2018-03-21T01:41:35.303Z,-1.80
2018-03-21T01:44:02.777Z,-1.80
2018-03-21T01:46:30.270Z,-1.80
2018-03-21T01:48:58.545Z,-1.80
2018-03-21T01:51:26.790Z,-1.80
2018-03-21T01:53:54.309Z,-1.80
2018-03-21T01:56:21.834Z,-1.90
2018-03-21T01:58:50.079Z,-2.00
2018-03-21T02:01:17.573Z,-2.10
2018-03-21T02:03:45.844Z,-2.10
2018-03-21T02:06:14.097Z,-2.10
2018-03-21T02:08:41.597Z,-2.10
2018-03-21T02:11:09.077Z,-2.10
2018-03-21T02:13:36.631Z,-2.10
2018-03-21T02:16:04.151Z,-2.10
2018-03-21T02:18:32.421Z,-2.20
2018-03-21T02:20:59.985Z,-2.20
2018-03-21T02:23:28.245Z,-2.20
2018-03-21T02:25:55.821Z,-2.30
2018-03-21T02:28:24.065Z,-2.40
2018-03-21T02:30:51.558Z,-2.50
2018-03-21T02:33:19.805Z,-2.50
2018-03-21T02:35:47.278Z,-2.50
2018-03-21T02:38:15.545Z,-2.60
2018-03-21T02:40:43.022Z,-2.60
2018-03-21T02:43:11.265Z,-2.70
2018-03-21T02:45:38.763Z,-2.70
2018-03-21T02:48:07.007Z,-2.80
2018-03-21T02:50:34.711Z,-2.80
2018-03-21T02:53:02.497Z,-2.80
2018-03-21T02:55:29.970Z,-2.90
2018-03-21T02:57:57.446Z,-3.00
2018-03-21T03:00:24.949Z,-3.00
2018-03-21T03:02:52.433Z,-3.00
2018-03-21T03:05:19.905Z,-3.00
2018-03-21T03:07:47.402Z,-3.00
2018-03-21T03:10:15.647Z,-3.10
2018-03-21T03:12:43.121Z,-3.10
2018-03-21T03:15:10.617Z,-3.20
2018-03-21T03:17:38.097Z,-3.40
2018-03-21T03:20:05.573Z,-3.40
2018-03-21T03:22:33.065Z,-3.40
2018-03-21T03:25:01.587Z,-3.40
2018-03-21T03:27:29.734Z,-3.50
2018-03-21T03:29:57.241Z,-3.50
2018-03-21T03:32:24.716Z,-3.40
2018-03-21T03:34:52.290Z,-3.50
2018-03-21T03:37:20.562Z,-3.50
2018-03-21T03:39:48.837Z,-3.50
2018-03-21T03:42:17.128Z,-3.50
2018-03-21T03:44:45.643Z,-3.60
2018-03-21T03:47:13.950Z,-3.60
2018-03-21T03:49:41.427Z,-3.60
2018-03-21T03:52:08.921Z,-3.70
2018-03-21T03:54:39.720Z,-4.00
2018-03-21T03:57:07.986Z,-4.10
2018-03-21T03:59:35.485Z,-4.10
2018-03-21T04:02:02.962Z,-4.10
2018-03-21T04:04:30.460Z,-4.20
2018-03-21T04:06:59.446Z,-4.20
2018-03-21T04:09:27.030Z,-4.20
2018-03-21T04:11:55.385Z,-4.20
2018-03-21T04:14:22.858Z,-4.20
2018-03-21T04:16:51.134Z,-4.30
2018-03-21T04:19:19.400Z,-4.30
2018-03-21T04:21:47.226Z,-4.40
2018-03-21T04:24:14.708Z,-4.40
2018-03-21T04:26:42.202Z,-4.50
2018-03-21T04:29:10.440Z,-4.60
2018-03-21T04:31:37.914Z,-4.60
2018-03-21T04:34:05.418Z,-4.60
2018-03-21T04:36:32.898Z,-4.60
2018-03-21T04:39:00.375Z,-4.60
2018-03-21T04:41:27.874Z,-4.60
2018-03-21T04:43:55.417Z,-4.60
2018-03-21T04:46:23.658Z,-4.60
2018-03-21T04:48:51.165Z,-4.60
2018-03-21T04:51:18.642Z,-4.60
2018-03-21T04:53:46.117Z,-4.60
2018-03-21T04:56:13.609Z,-4.50
2018-03-21T04:58:41.089Z,-4.50
2018-03-21T05:01:09.326Z,-4.60
2018-03-21T05:03:36.821Z,-4.60
2018-03-21T05:06:04.297Z,-4.60
2018-03-21T05:08:31.768Z,-4.60
2018-03-21T05:10:59.271Z,-4.50
2018-03-21T05:13:27.517Z,-4.50
2018-03-21T05:15:55.020Z,-4.50
2018-03-21T05:18:22.501Z,-4.50
2018-03-21T05:20:49.973Z,-4.50
2018-03-21T05:23:17.453Z,-4.50
2018-03-21T05:25:44.949Z,-4.50
2018-03-21T05:28:13.218Z,-4.60
2018-03-21T05:30:41.494Z,-4.60
2018-03-21T05:33:09.763Z,-4.60
2018-03-21T05:35:37.240Z,-4.60
2018-03-21T05:38:05.826Z,-4.60
2018-03-21T05:40:34.165Z,-4.50
2018-03-21T05:43:01.866Z,-4.50
2018-03-21T05:45:29.414Z,-4.50
2018-03-21T05:47:58.091Z,-4.10
2018-03-21T05:50:25.534Z,-4.10
2018-03-21T05:52:53.013Z,-3.90
2018-03-21T05:55:21.273Z,-4.30
2018-03-21T05:57:48.837Z,-4.30
2018-03-21T06:00:17.085Z,-3.20
2018-03-21T06:02:44.581Z,-3.20
2018-03-21T06:05:12.857Z,-2.70
2018-03-21T06:07:41.121Z,-2.00
2018-03-21T06:10:09.385Z,-1.40
2018-03-21T06:12:36.866Z,-1.50
2018-03-21T06:15:05.118Z,-1.30
2018-03-21T06:17:32.615Z,-1.30
2018-03-21T06:20:00.154Z,-0.90
2018-03-21T06:22:28.393Z,0.80
2018-03-21T06:24:55.891Z,0.80
2018-03-21T06:27:25.313Z,0.30
2018-03-21T06:29:52.796Z,0.30
2018-03-21T06:32:20.311Z,-0.10
2018-03-21T06:34:47.856Z,-0.40
2018-03-21T06:37:16.106Z,-0.10
2018-03-21T06:39:43.623Z,-0.10
2018-03-21T06:42:11.114Z,0.90
2018-03-21T06:44:38.611Z,1.80
2018-03-21T06:47:06.873Z,1.90
2018-03-21T06:49:35.130Z,1.30
2018-03-21T06:52:02.606Z,1.20
2018-03-21T06:54:30.885Z,1.20
2018-03-21T06:56:59.127Z,1.50
2018-03-21T06:59:26.624Z,1.50
2018-03-21T07:01:54.896Z,1.70
2018-03-21T07:04:23.141Z,2.10
2018-03-21T07:06:50.618Z,2.10
2018-03-21T07:09:18.437Z,3.10
2018-03-21T07:11:45.954Z,3.80
2018-03-21T07:14:26.209Z,4.60
2018-03-21T07:16:54.453Z,5.30
2018-03-21T07:19:21.930Z,5.20
2018-03-21T07:21:49.501Z,5.90
2018-03-21T07:24:18.113Z,6.10
2018-03-21T07:26:45.594Z,6.10
2018-03-21T07:29:13.085Z,6.00
2018-03-21T07:31:40.566Z,6.20
2018-03-21T07:34:08.362Z,6.80
2018-03-21T07:36:35.857Z,6.50
2018-03-21T07:39:04.157Z,5.60
2018-03-21T07:41:32.385Z,4.30
2018-03-21T07:43:59.877Z,4.20
2018-03-21T07:46:28.259Z,5.40
2018-03-21T07:48:55.753Z,5.30
2018-03-21T07:51:23.250Z,5.70
2018-03-21T07:53:50.725Z,5.90
2018-03-21T07:56:18.297Z,5.40
2018-03-21T07:58:46.589Z,5.70
2018-03-21T08:01:14.079Z,5.60
2018-03-21T08:03:41.684Z,6.10
2018-03-21T08:06:09.945Z,5.60
2018-03-21T08:08:37.417Z,5.50
2018-03-21T08:11:05.665Z,5.20
2018-03-21T08:13:33.404Z,5.10
2018-03-21T08:16:00.917Z,5.30
2018-03-21T08:18:29.153Z,4.60
2018-03-21T08:20:56.641Z,4.60
2018-03-21T08:23:24.216Z,4.70
2018-03-21T08:25:52.461Z,5.40
2018-03-21T08:28:20.045Z,5.40
2018-03-21T08:30:48.282Z,6.20
2018-03-21T08:33:15.761Z,6.20
2018-03-21T08:35:43.333Z,5.40
2018-03-21T08:38:11.616Z,4.70
2018-03-21T08:40:39.857Z,4.50
2018-03-21T08:43:07.353Z,4.50
2018-03-21T08:45:34.902Z,4.30
2018-03-21T08:48:03.143Z,4.10
2018-03-21T08:50:30.642Z,4.10
2018-03-21T08:52:58.909Z,3.90
2018-03-21T08:55:27.437Z,4.00
2018-03-21T08:57:54.933Z,4.00
2018-03-21T09:00:22.417Z,3.70
2018-03-21T09:02:50.934Z,4.20
2018-03-21T09:05:18.430Z,4.20
2018-03-21T09:07:45.905Z,5.20
2018-03-21T09:10:14.896Z,6.00
2018-03-21T09:12:43.200Z,5.60
2018-03-21T09:15:10.667Z,5.60
2018-03-21T09:17:38.186Z,5.10
2018-03-21T09:20:06.447Z,4.10
2018-03-21T09:22:33.926Z,4.20
2018-03-21T09:25:02.166Z,4.10
2018-03-21T09:27:29.789Z,4.10
2018-03-21T09:29:57.561Z,5.10
2018-03-21T09:32:25.081Z,5.10
2018-03-21T09:34:53.341Z,4.80
2018-03-21T09:37:20.818Z,4.90
2018-03-21T09:39:49.091Z,5.60
2018-03-21T09:42:17.610Z,6.70
2018-03-21T09:44:45.129Z,6.60
2018-03-21T09:47:13.374Z,7.80
2018-03-21T09:49:40.885Z,7.80
2018-03-21T09:52:08.358Z,8.60
2018-03-21T09:54:41.489Z,9.00
2018-03-21T09:57:10.093Z,9.30
2018-03-21T09:59:38.332Z,8.40
2018-03-21T10:02:05.841Z,8.40
2018-03-21T10:04:33.310Z,8.40
2018-03-21T10:07:00.842Z,8.30
2018-03-21T10:09:29.152Z,7.90
2018-03-21T10:11:56.922Z,7.90
2018-03-21T10:14:24.893Z,7.90
2018-03-21T10:16:52.401Z,7.30
2018-03-21T10:19:20.645Z,8.00
2018-03-21T10:21:48.113Z,7.90
2018-03-21T10:24:15.842Z,8.40
2018-03-21T10:26:43.317Z,8.30
2018-03-21T10:29:10.786Z,8.70
2018-03-21T10:31:38.279Z,9.50
2018-03-21T10:34:06.516Z,8.60
2018-03-21T10:36:33.993Z,8.60
2018-03-21T10:39:01.481Z,9.00
2018-03-21T10:41:28.955Z,8.50
2018-03-21T10:43:56.433Z,7.10
2018-03-21T10:46:23.934Z,7.00
2018-03-21T10:48:52.259Z,8.50
2018-03-21T10:51:20.483Z,9.50
2018-03-21T10:53:48.747Z,10.20
2018-03-21T10:56:16.321Z,10.20
2018-03-21T10:58:45.153Z,9.30
2018-03-21T11:01:18.370Z,9.20
2018-03-21T11:03:51.521Z,8.50
2018-03-21T11:06:19.018Z,7.10
2018-03-21T11:08:46.502Z,6.70
2018-03-21T11:11:14.746Z,6.50
2018-03-21T11:13:42.245Z,6.50
2018-03-21T11:16:10.545Z,6.40
2018-03-21T11:18:37.973Z,6.30
2018-03-21T11:21:06.232Z,7.30
2018-03-21T11:23:33.721Z,7.20
2018-03-21T11:26:01.265Z,7.80
2018-03-21T11:28:28.821Z,7.30
2018-03-21T11:30:57.058Z,6.70
2018-03-21T11:33:24.531Z,6.70
2018-03-21T11:35:52.114Z,6.60
2018-03-21T11:38:20.359Z,6.90
2018-03-21T11:40:47.839Z,6.90
2018-03-21T11:43:16.097Z,6.90
2018-03-21T11:45:43.569Z,6.90
2018-03-21T11:48:11.809Z,7.00
2018-03-21T11:50:39.318Z,7.00
2018-03-21T11:53:07.585Z,6.80
2018-03-21T11:55:35.071Z,6.80
2018-03-21T11:58:02.562Z,7.80
2018-03-21T12:00:30.058Z,7.80
2018-03-21T12:02:58.301Z,7.20
2018-03-21T12:05:25.793Z,7.20
2018-03-21T12:07:54.033Z,6.70
2018-03-21T12:10:21.510Z,6.70
2018-03-21T12:12:49.033Z,7.00
2018-03-21T12:15:16.508Z,6.80
2018-03-21T12:17:43.978Z,7.60
2018-03-21T12:20:11.464Z,7.50
2018-03-21T12:22:39.701Z,7.70
2018-03-21T12:25:07.170Z,7.70
2018-03-21T12:27:36.176Z,8.40
2018-03-21T12:30:04.561Z,8.30
2018-03-21T12:32:32.802Z,8.30
2018-03-21T12:35:00.379Z,8.20
2018-03-21T12:37:27.849Z,9.20
2018-03-21T12:39:56.117Z,11.70
2018-03-21T12:42:23.614Z,11.70
2018-03-21T12:44:51.093Z,12.70
2018-03-21T12:47:18.568Z,13.20
2018-03-21T12:49:46.061Z,13.70
2018-03-21T12:52:14.301Z,14.50
2018-03-21T12:54:41.780Z,14.50
2018-03-21T12:57:10.046Z,14.60
2018-03-21T12:59:38.657Z,13.50
2018-03-21T13:02:06.153Z,13.40
2018-03-21T13:04:33.677Z,12.80
2018-03-21T13:07:01.154Z,12.00
2018-03-21T13:09:28.678Z,11.40
2018-03-21T13:11:56.941Z,11.10
2018-03-21T13:14:24.417Z,11.10
2018-03-21T13:16:52.933Z,13.40
2018-03-21T13:19:20.429Z,13.40
2018-03-21T13:21:47.905Z,13.60
2018-03-21T13:24:16.146Z,10.50
2018-03-21T13:26:43.641Z,10.50
2018-03-21T13:29:11.881Z,10.00
2018-03-21T13:31:39.617Z,10.00
2018-03-21T13:34:07.113Z,10.30
2018-03-21T13:36:34.598Z,11.50
2018-03-21T13:39:02.838Z,10.10
2018-03-21T13:41:30.421Z,10.10
2018-03-21T13:43:58.697Z,10.40
2018-03-21T13:46:26.942Z,10.70
2018-03-21T13:48:54.446Z,10.70
2018-03-21T13:51:22.682Z,8.00
2018-03-21T13:53:52.590Z,7.30
2018-03-21T13:56:20.090Z,7.30
2018-03-21T13:58:48.333Z,6.40
2018-03-21T14:01:15.805Z,6.40
2018-03-21T14:03:44.065Z,6.70
2018-03-21T14:06:11.545Z,6.60
2018-03-21T14:08:39.818Z,6.00
2018-03-21T14:11:08.445Z,6.40
2018-03-21T14:13:35.917Z,6.40
2018-03-21T14:16:03.419Z,6.60
2018-03-21T14:18:31.694Z,6.80
2018-03-21T14:20:59.938Z,6.60
2018-03-21T14:23:27.408Z,6.60
2018-03-21T14:25:54.914Z,6.60
2018-03-21T14:28:22.391Z,6.50
2018-03-21T14:30:49.869Z,6.70
2018-03-21T14:33:17.369Z,7.00
2018-03-21T14:35:45.605Z,7.40
2018-03-21T14:38:13.127Z,7.30
2018-03-21T14:40:41.360Z,7.50
2018-03-21T14:43:09.601Z,7.40
2018-03-21T14:45:37.089Z,7.40
2018-03-21T14:48:04.581Z,7.40
2018-03-21T14:50:32.109Z,7.40
2018-03-21T14:53:00.353Z,7.40
2018-03-21T14:55:27.849Z,7.40
2018-03-21T14:57:56.118Z,6.10
2018-03-21T15:00:24.645Z,5.80
2018-03-21T15:02:52.142Z,5.80
2018-03-21T15:05:21.118Z,6.30
2018-03-21T15:07:48.618Z,6.30
2018-03-21T15:10:16.878Z,6.70
2018-03-21T15:12:45.126Z,6.90
2018-03-21T15:15:12.604Z,6.80
2018-03-21T15:17:41.613Z,6.90
2018-03-21T15:20:09.890Z,6.90
2018-03-21T15:22:38.134Z,6.90
2018-03-21T15:25:05.629Z,6.90
2018-03-21T15:27:33.897Z,6.80
2018-03-21T15:30:02.146Z,6.70
2018-03-21T15:32:29.637Z,6.60
2018-03-21T15:34:57.917Z,6.00
2018-03-21T15:37:26.210Z,5.80
2018-03-21T15:39:53.662Z,5.80
2018-03-21T15:42:21.142Z,5.80
2018-03-21T15:44:48.612Z,5.70
2018-03-21T15:47:16.105Z,5.70
2018-03-21T15:49:44.346Z,5.20
2018-03-21T15:52:11.933Z,5.20
2018-03-21T15:54:39.498Z,5.00
2018-03-21T15:57:08.026Z,4.90
2018-03-21T15:59:35.580Z,4.90
2018-03-21T16:02:03.072Z,4.90
2018-03-21T16:04:30.551Z,4.90
2018-03-21T16:06:58.793Z,4.80
2018-03-21T16:09:26.538Z,4.80
2018-03-21T16:11:54.220Z,4.70
2018-03-21T16:14:21.693Z,4.90
2018-03-21T16:16:50.737Z,5.10
2018-03-21T16:19:18.281Z,5.20
2018-03-21T16:21:46.078Z,5.20
2018-03-21T16:24:13.606Z,5.30
2018-03-21T16:26:41.150Z,5.20
2018-03-21T16:29:09.390Z,4.50
2018-03-21T16:31:36.907Z,4.50
2018-03-21T16:34:04.437Z,4.40
2018-03-21T16:36:32.677Z,4.20
2018-03-21T16:39:00.174Z,4.10
2018-03-21T16:41:28.482Z,4.20
2018-03-21T16:43:56.013Z,4.20
2018-03-21T16:46:24.319Z,4.30
2018-03-21T16:48:51.789Z,4.30
2018-03-21T16:51:19.308Z,4.20
2018-03-21T16:53:46.808Z,4.10
2018-03-21T16:56:14.279Z,4.00
2018-03-21T16:58:41.753Z,3.80
2018-03-21T17:01:09.253Z,3.70
2018-03-21T17:03:36.755Z,3.60
2018-03-21T17:06:04.214Z,3.70
2018-03-21T17:08:31.713Z,3.80
2018-03-21T17:10:59.210Z,3.60
2018-03-21T17:13:26.685Z,3.50
2018-03-21T17:15:54.182Z,3.30
2018-03-21T17:18:22.422Z,3.10
2018-03-21T17:20:49.935Z,3.10
2018-03-21T17:23:17.426Z,3.00
2018-03-21T17:25:44.906Z,3.00
2018-03-21T17:28:12.382Z,3.00
2018-03-21T17:30:40.645Z,2.80
2018-03-21T17:33:08.927Z,2.70
2018-03-21T17:35:37.178Z,2.60
2018-03-21T17:38:04.695Z,2.60
2018-03-21T17:40:32.180Z,2.50
2018-03-21T17:42:59.716Z,2.50
2018-03-21T17:45:27.219Z,2.40
2018-03-21T17:47:54.697Z,2.40
2018-03-21T17:50:22.945Z,2.30
2018-03-21T17:52:51.223Z,2.20
2018-03-21T17:55:18.751Z,2.20
2018-03-21T17:57:46.222Z,2.20
2018-03-21T18:00:14.612Z,2.10
2018-03-21T18:02:43.259Z,1.90
2018-03-21T18:05:10.777Z,1.90
2018-03-21T18:07:39.046Z,1.80
2018-03-21T18:10:06.550Z,1.80
2018-03-21T18:12:34.036Z,1.70
2018-03-21T18:15:01.534Z,1.60
2018-03-21T18:17:29.778Z,1.10
2018-03-21T18:19:57.261Z,1.10
2018-03-21T18:22:25.528Z,1.00
2018-03-21T18:24:54.063Z,1.00
2018-03-21T18:27:21.551Z,1.00
2018-03-21T18:29:49.050Z,0.90
2018-03-21T18:32:16.529Z,0.90
2018-03-21T18:34:44.056Z,0.90
2018-03-21T18:37:11.659Z,0.70
2018-03-21T18:39:39.093Z,0.60
2018-03-21T18:42:06.695Z,0.50
2018-03-21T18:44:34.193Z,0.50
2018-03-21T18:47:01.737Z,0.40
2018-03-21T18:49:29.237Z,0.30
2018-03-21T18:51:57.129Z,0.30
2018-03-21T18:54:24.610Z,0.30
2018-03-21T18:56:52.993Z,0.20
2018-03-21T18:59:20.446Z,0.20
2018-03-21T19:01:48.689Z,0.00
2018-03-21T19:04:16.165Z,0.00
2018-03-21T19:06:43.746Z,0.00
2018-03-21T19:09:12.005Z,-0.10
2018-03-21T19:11:39.585Z,-0.10
2018-03-21T19:14:08.109Z,-0.20
2018-03-21T19:16:35.594Z,-0.20
2018-03-21T19:19:03.077Z,-0.10
2018-03-21T19:21:31.358Z,0.00
2018-03-21T19:23:59.601Z,0.00
2018-03-21T19:26:27.074Z,0.00
2018-03-21T19:28:54.574Z,-0.10
2018-03-21T19:31:22.049Z,0.00
2018-03-21T19:33:49.561Z,-0.20
2018-03-21T19:36:17.831Z,-0.40
2018-03-21T19:38:46.100Z,-0.50
2018-03-21T19:41:13.581Z,-0.50
2018-03-21T19:43:41.083Z,-0.50
2018-03-21T19:46:08.571Z,-0.50
2018-03-21T19:48:36.142Z,-0.50
2018-03-21T19:51:04.417Z,-0.40
2018-03-21T19:53:32.665Z,-0.40
2018-03-21T19:56:00.153Z,-0.50
2018-03-21T19:58:28.425Z,-0.70
2018-03-21T20:00:56.678Z,-0.70
2018-03-21T20:03:24.262Z,-0.80
2018-03-21T20:05:51.907Z,-0.80
2018-03-21T20:08:19.419Z,-0.90
2018-03-21T20:10:46.910Z,-1.00
2018-03-21T20:13:14.515Z,-1.00
2018-03-21T20:15:42.057Z,-1.10
2018-03-21T20:18:10.333Z,-1.20
2018-03-21T20:20:38.820Z,-1.20
2018-03-21T20:23:07.141Z,-1.20
2018-03-21T20:25:34.629Z,-1.30
2018-03-21T20:28:02.166Z,-1.30
2018-03-21T20:30:29.837Z,-1.40
2018-03-21T20:32:57.331Z,-1.50
2018-03-21T20:35:25.598Z,-1.50
2018-03-21T20:37:53.873Z,-1.50
2018-03-21T20:40:22.139Z,-1.60
2018-03-21T20:42:50.698Z,-1.60
2018-03-21T20:45:18.174Z,-1.70
2018-03-21T20:47:45.905Z,-1.80
2018-03-21T20:50:13.965Z,-1.90
2018-03-21T20:52:41.490Z,-2.00
2018-03-21T20:55:09.742Z,-1.90
2018-03-21T20:57:38.009Z,-1.90
2018-03-21T21:00:05.593Z,-1.90
2018-03-21T21:02:33.877Z,-1.90
2018-03-21T21:05:02.198Z,-2.00
2018-03-21T21:07:29.678Z,-2.00
2018-03-21T21:09:57.149Z,-2.00
2018-03-21T21:12:24.731Z,-2.00
2018-03-21T21:14:52.998Z,-2.00
2018-03-21T21:17:21.520Z,-2.00
2018-03-21T21:19:49.290Z,-2.00
2018-03-21T21:22:16.770Z,-2.00
2018-03-21T21:24:44.516Z,-2.10
2018-03-21T21:27:12.273Z,-2.10
2018-03-21T21:29:39.763Z,-2.10
2018-03-21T21:32:07.757Z,-2.10
2018-03-21T21:34:36.281Z,-2.20
2018-03-21T21:37:03.762Z,-2.20
2018-03-21T21:39:31.243Z,-2.30
2018-03-21T21:41:58.812Z,-2.30
2018-03-21T21:44:27.053Z,-2.40
2018-03-21T21:46:54.529Z,-2.40
2018-03-21T21:49:22.053Z,-2.40
2018-03-21T21:51:49.537Z,-2.50
2018-03-21T21:54:17.014Z,-2.60
2018-03-21T21:56:45.300Z,-2.60
2018-03-21T21:59:13.549Z,-2.70
2018-03-21T22:01:41.022Z,-2.60
2018-03-21T22:04:09.299Z,-2.70
2018-03-21T22:06:37.553Z,-2.70
2018-03-21T22:09:05.030Z,-2.70
2018-03-21T22:11:33.294Z,-2.70
2018-03-21T22:14:00.773Z,-2.70
2018-03-21T22:16:29.288Z,-2.60
2018-03-21T22:18:56.808Z,-2.60
2018-03-21T22:21:25.040Z,-2.50
2018-03-21T22:23:52.508Z,-2.50
2018-03-21T22:26:20.000Z,-2.60
2018-03-21T22:28:48.518Z,-2.70
2018-03-21T22:31:15.988Z,-2.70
2018-03-21T22:46:45.848Z,-2.00
2018-03-21T22:49:13.321Z,-1.90
2018-03-21T22:51:40.793Z,-2.10
2018-03-21T22:54:08.324Z,-2.30
2018-03-21T22:56:35.796Z,-2.60
2018-03-21T22:59:03.264Z,-2.70
2018-03-21T23:01:30.822Z,-2.90
2018-03-21T23:03:59.025Z,-3.00
2018-03-21T23:06:26.501Z,-3.10
2018-03-21T23:08:55.801Z,-3.20
2018-03-21T23:11:24.050Z,-3.40
2018-03-21T23:13:51.537Z,-3.40
2018-03-21T23:16:19.805Z,-3.50
2018-03-21T23:18:47.286Z,-3.50
2018-03-21T23:21:15.796Z,-3.60
2018-03-21T23:23:43.315Z,-3.60
2018-03-21T23:26:11.591Z,-3.60
2018-03-21T23:28:39.842Z,-3.60
2018-03-21T23:31:07.333Z,-3.60
2018-03-21T23:33:34.826Z,-3.60
2018-03-21T23:36:02.307Z,-3.60
2018-03-21T23:38:29.837Z,-3.60
2018-03-21T23:40:57.315Z,-3.60
2018-03-21T23:43:24.808Z,-3.60
2018-03-21T23:45:53.069Z,-3.70
2018-03-21T23:48:20.550Z,-3.70
2018-03-21T23:50:48.853Z,-3.70
2018-03-21T23:53:16.382Z,-3.70
2018-03-21T23:55:44.627Z,-3.80
2018-03-21T23:58:12.101Z,-3.80
